Terminal Aerodrome Forecast
Issued by NWS

Home | Current Version | Previous Version | Text Only | Print | Product List | Glossary Off
Versions: 1 2 3 4 5 6 7 8 9 10 11 12 13 14

000
FTUS43 KGRB 100500
TAFAUW
TAF
KAUW 100538Z 1006/1106 VRB03KT P6SM SKC
     FM101500 17008KT P6SM SCT045
     FM110000 15006KT P6SM SCT100 BKN200=

USA.gov is the U.S. government's official web portal to all federal, state and local government web resources and services.